Time;durP1;ratioP1;P1;durP2;ratioP2;P2;SDS_P1;SDS_P2;PMS_P1;PMS_P2;Temp;Humidity;BMP_temperature;BMP_pressure;BME280_temperature;BME280_humidity;BME280_pressure;Samples;Min_cycle;Max_cycle;Signal;HPM_P1;HPM_P2
2022/03/30 00:01:20;;;;;;;19.77;15.20;;;10.00;99.90;;;;;;5093562;28;20768;-71
2022/03/30 00:03:48;;;;;;;20.07;14.97;;;10.00;99.90;;;;;;5093760;28;20227;-74
2022/03/30 00:06:15;;;;;;;16.93;14.23;;;9.90;99.90;;;;;;5093265;28;20227;-72
2022/03/30 00:08:42;;;;;;;19.10;15.60;;;10.00;99.90;;;;;;5092924;28;20196;-72
2022/03/30 00:11:09;;;;;;;19.77;14.37;;;10.00;99.90;;;;;;5093517;28;20250;-72
2022/03/30 00:13:36;;;;;;;18.77;15.23;;;9.90;99.90;;;;;;5093322;28;20220;-72
2022/03/30 00:16:03;;;;;;;20.27;15.50;;;9.80;99.90;;;;;;5093227;28;20197;-72
2022/03/30 00:18:30;;;;;;;22.23;15.33;;;9.70;99.90;;;;;;5093256;28;20223;-72
2022/03/30 00:20:58;;;;;;;17.17;14.67;;;9.60;99.90;;;;;;5093170;28;20196;-72
2022/03/30 00:23:25;;;;;;;19.33;14.70;;;9.50;99.90;;;;;;5093040;28;20244;-72
2022/03/30 00:25:52;;;;;;;18.40;16.43;;;9.30;99.90;;;;;;5093236;28;20192;-73
2022/03/30 00:28:19;;;;;;;16.77;14.60;;;9.30;99.90;;;;;;5093066;28;20685;-72
2022/03/30 00:30:45;;;;;;;18.30;15.40;;;9.30;99.90;;;;;;5093138;28;20249;-73
2022/03/30 00:33:12;;;;;;;25.67;17.53;;;9.20;99.90;;;;;;5093014;28;20309;-73
2022/03/30 00:35:39;;;;;;;24.17;18.17;;;9.00;99.90;;;;;;5092959;28;20253;-73
2022/03/30 00:38:07;;;;;;;22.07;18.03;;;8.80;99.90;;;;;;5093234;28;20242;-72
2022/03/30 00:40:33;;;;;;;23.87;17.77;;;8.80;99.90;;;;;;5092913;28;20655;-73
2022/03/30 00:43:01;;;;;;;22.23;18.10;;;8.60;99.90;;;;;;5093053;28;20284;-72
2022/03/30 00:45:28;;;;;;;23.73;18.10;;;8.70;99.90;;;;;;5093033;28;20229;-72
2022/03/30 00:47:54;;;;;;;22.00;17.90;;;8.60;99.90;;;;;;5093032;28;20643;-72
2022/03/30 00:50:23;;;;;;;24.30;17.63;;;8.70;99.90;;;;;;5093150;28;20196;-72
2022/03/30 00:52:51;;;;;;;22.27;18.30;;;8.70;99.90;;;;;;5092938;28;20220;-72
2022/03/30 00:55:19;;;;;;;24.53;18.97;;;8.70;99.90;;;;;;5093320;28;20197;-73
2022/03/30 00:57:48;;;;;;;22.60;17.80;;;8.80;99.90;;;;;;5092922;28;20200;-72
2022/03/30 01:00:16;;;;;;;24.43;18.53;;;8.70;99.90;;;;;;5092782;28;20257;-73
2022/03/30 01:02:44;;;;;;;22.70;17.57;;;8.70;99.90;;;;;;5092744;28;20249;-72
2022/03/30 01:05:11;;;;;;;22.07;16.93;;;8.80;99.90;;;;;;5092905;28;20216;-73
2022/03/30 01:07:38;;;;;;;19.73;16.07;;;8.90;99.90;;;;;;5093126;28;20196;-72
2022/03/30 01:10:05;;;;;;;20.40;17.43;;;8.90;99.90;;;;;;5092816;28;20245;-72
2022/03/30 01:12:38;;;;;;;18.17;15.57;;;8.80;99.90;;;;;;5092737;28;20200;-73
2022/03/30 01:15:06;;;;;;;19.90;15.43;;;8.80;99.90;;;;;;5092648;28;20643;-72
2022/03/30 01:17:34;;;;;;;18.17;15.57;;;8.90;99.90;;;;;;5092830;28;20201;-73
2022/03/30 01:20:00;;;;;;;20.20;16.17;;;8.80;99.90;;;;;;5092595;28;20666;-73
2022/03/30 01:22:28;;;;;;;19.60;16.27;;;8.70;99.90;;;;;;5095383;28;20228;-72
2022/03/30 01:24:55;;;;;;;19.63;16.07;;;8.80;99.90;;;;;;5096517;28;20246;-72
2022/03/30 01:27:22;;;;;;;22.67;16.27;;;8.80;99.90;;;;;;5096388;28;20192;-73
2022/03/30 01:32:34;;;;;;;18.73;15.43;;;8.90;99.90;;;;;;5096261;28;20214;-72
2022/03/30 01:35:03;;;;;;;21.73;17.13;;;8.80;99.90;;;;;;5096270;28;20228;-72
2022/03/30 01:37:32;;;;;;;25.17;18.40;;;8.90;99.90;;;;;;5096215;28;20288;-72
2022/03/30 01:40:00;;;;;;;23.10;18.47;;;8.80;99.90;;;;;;5096060;28;20196;-72
2022/03/30 01:42:29;;;;;;;21.97;15.83;;;8.70;99.90;;;;;;5096288;28;20193;-72
2022/03/30 01:44:55;;;;;;;20.17;15.83;;;8.70;99.90;;;;;;5096022;28;20648;-72
2022/03/30 01:47:22;;;;;;;17.23;15.37;;;8.70;99.90;;;;;;5096118;28;20192;-73
2022/03/30 01:49:49;;;;;;;23.83;16.03;;;8.70;99.90;;;;;;5096040;28;20200;-72
2022/03/30 01:52:16;;;;;;;19.33;15.07;;;8.70;99.90;;;;;;5095931;28;20200;-72
2022/03/30 01:54:45;;;;;;;18.33;15.87;;;8.70;99.90;;;;;;5095668;28;20220;-73
2022/03/30 01:57:13;;;;;;;21.60;15.80;;;8.60;99.90;;;;;;5095949;28;20192;-72
2022/03/30 01:59:40;;;;;;;18.90;16.17;;;8.60;99.90;;;;;;5095885;28;20287;-72
2022/03/30 02:02:07;;;;;;;19.53;17.23;;;8.70;99.90;;;;;;5096098;28;20207;-72
2022/03/30 02:04:36;;;;;;;19.47;17.37;;;8.80;99.90;;;;;;5095706;28;20200;-73
2022/03/30 02:07:04;;;;;;;24.23;16.63;;;8.80;99.90;;;;;;5095546;28;20200;-72
2022/03/30 02:09:32;;;;;;;24.00;17.10;;;8.80;99.90;;;;;;5095842;28;20196;-72
2022/03/30 02:12:00;;;;;;;22.10;17.17;;;8.90;99.90;;;;;;5095647;28;20192;-72
2022/03/30 02:14:27;;;;;;;24.13;16.27;;;8.90;99.90;;;;;;5095437;28;20231;-74
2022/03/30 02:16:53;;;;;;;22.27;17.83;;;8.80;99.90;;;;;;5095474;28;20287;-72
2022/03/30 02:19:20;;;;;;;26.93;18.23;;;8.70;99.90;;;;;;5095327;28;20713;-72
2022/03/30 02:21:47;;;;;;;23.47;18.40;;;8.60;99.90;;;;;;5095147;28;20648;-72
2022/03/30 02:24:13;;;;;;;23.90;19.07;;;8.60;99.90;;;;;;5095599;28;20204;-73
2022/03/30 02:26:40;;;;;;;25.83;18.30;;;8.60;99.90;;;;;;5095422;28;20269;-73
2022/03/30 02:29:08;;;;;;;22.60;17.90;;;8.60;99.90;;;;;;5095322;28;20246;-72
2022/03/30 02:31:35;;;;;;;22.80;17.87;;;8.70;99.90;;;;;;5094836;28;20226;-73
2022/03/30 02:34:01;;;;;;;26.00;18.17;;;8.70;99.90;;;;;;5094898;28;20301;-72
2022/03/30 02:36:28;;;;;;;26.73;17.60;;;8.80;99.90;;;;;;5095003;28;20261;-73
2022/03/30 02:38:55;;;;;;;21.97;18.10;;;8.90;99.90;;;;;;5094974;28;20253;-73
2022/03/30 02:41:22;;;;;;;25.50;18.07;;;8.90;99.90;;;;;;5095176;28;20609;-72
2022/03/30 02:43:49;;;;;;;27.47;18.47;;;8.90;99.90;;;;;;5095015;28;20227;-72
2022/03/30 02:46:17;;;;;;;21.77;18.33;;;8.80;99.90;;;;;;5094888;28;20245;-72
2022/03/30 02:48:43;;;;;;;20.40;17.63;;;8.80;99.90;;;;;;5094657;28;20249;-73
2022/03/30 02:51:10;;;;;;;23.77;16.77;;;8.80;99.90;;;;;;5094988;28;20192;-73
2022/03/30 02:53:37;;;;;;;25.27;17.03;;;8.80;99.90;;;;;;5094782;28;20220;-72
2022/03/30 02:56:04;;;;;;;21.97;17.17;;;8.70;99.90;;;;;;5094528;28;20686;-73
2022/03/30 02:58:31;;;;;;;19.30;16.13;;;8.80;99.90;;;;;;5094767;28;20204;-72
2022/03/30 03:00:58;;;;;;;22.97;18.23;;;8.80;99.90;;;;;;5094851;28;20656;-73
2022/03/30 03:03:27;;;;;;;23.00;17.77;;;8.90;99.90;;;;;;5094412;28;20621;-72
2022/03/30 03:05:53;;;;;;;25.70;17.83;;;8.80;99.90;;;;;;5094440;28;20655;-72
2022/03/30 03:08:20;;;;;;;22.57;17.73;;;8.80;99.90;;;;;;5094572;28;20200;-72
2022/03/30 03:10:50;;;;;;;23.70;17.33;;;8.70;99.90;;;;;;5094416;28;20196;-73
2022/03/30 03:13:18;;;;;;;20.33;17.40;;;8.70;99.90;;;;;;5094242;28;20223;-72
2022/03/30 03:15:46;;;;;;;22.27;17.20;;;8.80;99.90;;;;;;5094272;28;20201;-72
2022/03/30 03:18:13;;;;;;;25.07;17.50;;;8.80;99.90;;;;;;5094375;28;20203;-73
2022/03/30 03:20:44;;;;;;;21.30;17.33;;;8.80;99.90;;;;;;5094219;28;20234;-73
2022/03/30 03:23:11;;;;;;;26.50;19.07;;;8.80;99.90;;;;;;5094000;28;20220;-72
2022/03/30 03:25:39;;;;;;;22.27;17.07;;;8.80;99.90;;;;;;5094192;28;20282;-72
2022/03/30 03:28:07;;;;;;;26.90;18.17;;;8.70;99.90;;;;;;5093969;28;20253;-72
2022/03/30 03:30:33;;;;;;;21.40;17.73;;;8.60;99.90;;;;;;5093840;28;20589;-74
2022/03/30 03:33:01;;;;;;;27.77;18.50;;;8.60;99.90;;;;;;5094097;28;20196;-72
2022/03/30 03:35:28;;;;;;;22.03;17.33;;;8.50;99.90;;;;;;5093943;28;20262;-72
2022/03/30 03:37:57;;;;;;;20.93;17.17;;;8.50;99.90;;;;;;5093865;28;20644;-72
2022/03/30 03:40:24;;;;;;;25.20;19.23;;;8.50;99.90;;;;;;5093911;28;20192;-72
2022/03/30 03:42:51;;;;;;;25.13;18.63;;;8.50;99.90;;;;;;5093707;28;20306;-72
2022/03/30 03:45:18;;;;;;;25.80;19.23;;;8.50;99.90;;;;;;5093214;28;20204;-72
2022/03/30 03:47:44;;;;;;;20.73;17.80;;;8.50;99.90;;;;;;5093630;28;20659;-73
2022/03/30 03:50:11;;;;;;;29.80;17.43;;;8.50;99.90;;;;;;5094039;28;20226;-73
2022/03/30 03:52:38;;;;;;;22.03;17.70;;;8.60;99.90;;;;;;5093781;28;20579;-72
2022/03/30 03:55:08;;;;;;;21.30;17.77;;;8.60;99.90;;;;;;5093591;28;20224;-73
2022/03/30 03:57:35;;;;;;;22.83;17.57;;;8.50;99.90;;;;;;5093419;28;20541;-73
2022/03/30 04:00:03;;;;;;;22.13;17.33;;;8.50;99.90;;;;;;5093693;28;20203;-72
2022/03/30 04:02:30;;;;;;;21.03;16.73;;;8.50;99.90;;;;;;5093604;28;20196;-73
2022/03/30 04:04:56;;;;;;;23.73;17.13;;;8.50;99.90;;;;;;5093459;28;20200;-72
2022/03/30 04:07:23;;;;;;;22.33;16.47;;;8.40;99.90;;;;;;5093400;28;20200;-72
2022/03/30 04:09:50;;;;;;;23.50;17.07;;;8.50;99.90;;;;;;5093346;28;20200;-72
2022/03/30 04:12:18;;;;;;;24.63;18.97;;;8.50;99.90;;;;;;5093196;28;20192;-73
2022/03/30 04:14:44;;;;;;;22.43;18.43;;;8.50;99.90;;;;;;5093384;28;20260;-73
2022/03/30 04:17:11;;;;;;;23.50;18.83;;;8.40;99.90;;;;;;5093397;28;20197;-72
2022/03/30 04:19:38;;;;;;;21.43;18.57;;;8.50;99.90;;;;;;5093119;28;20607;-72
2022/03/30 04:22:06;;;;;;;26.63;18.67;;;8.50;99.90;;;;;;5093145;28;20228;-73
2022/03/30 04:24:33;;;;;;;25.10;17.47;;;8.50;99.90;;;;;;5093052;28;20196;-72
2022/03/30 04:26:59;;;;;;;24.97;18.77;;;8.50;99.90;;;;;;5093298;28;20196;-73
2022/03/30 04:29:27;;;;;;;25.40;18.30;;;8.60;99.90;;;;;;5092994;28;20773;-73
2022/03/30 04:31:54;;;;;;;28.07;19.03;;;8.60;99.90;;;;;;5093152;28;20200;-73
2022/03/30 04:34:20;;;;;;;27.07;19.30;;;8.50;99.90;;;;;;5093023;28;20216;-73
2022/03/30 04:36:47;;;;;;;25.87;18.50;;;8.50;99.90;;;;;;5093111;28;20196;-72
2022/03/30 04:39:14;;;;;;;22.60;17.37;;;8.40;99.90;;;;;;5092909;28;20191;-73
2022/03/30 04:41:40;;;;;;;22.73;18.77;;;8.50;99.90;;;;;;5093254;28;20609;-72
2022/03/30 04:44:07;;;;;;;25.57;20.03;;;8.50;99.90;;;;;;5092907;28;20208;-72
2022/03/30 04:46:35;;;;;;;24.57;19.63;;;8.30;99.90;;;;;;5093023;28;20204;-72
2022/03/30 04:49:02;;;;;;;27.30;19.93;;;8.30;99.90;;;;;;5093224;28;20204;-72
2022/03/30 04:51:29;;;;;;;29.67;19.43;;;8.30;99.90;;;;;;5092912;28;20663;-73
2022/03/30 04:53:56;;;;;;;24.87;19.27;;;8.30;99.90;;;;;;5092906;28;20297;-72
2022/03/30 04:56:24;;;;;;;28.07;19.37;;;8.40;99.90;;;;;;5095884;28;20227;-72
2022/03/30 04:58:50;;;;;;;26.13;19.13;;;8.40;99.90;;;;;;5096996;28;20192;-72
2022/03/30 05:01:17;;;;;;;25.93;19.63;;;8.40;99.90;;;;;;5096871;28;20248;-72
2022/03/30 05:03:45;;;;;;;29.33;20.70;;;8.30;99.90;;;;;;5096912;28;20200;-73
2022/03/30 05:06:12;;;;;;;28.20;21.77;;;8.30;99.90;;;;;;5096679;28;20674;-73
2022/03/30 05:08:38;;;;;;;22.93;18.50;;;8.40;99.90;;;;;;5096754;28;20652;-73
2022/03/30 05:11:05;;;;;;;27.23;19.17;;;8.30;99.90;;;;;;5096844;28;20266;-73
2022/03/30 05:13:32;;;;;;;25.27;19.73;;;8.20;99.90;;;;;;5096627;28;20651;-73
2022/03/30 05:15:58;;;;;;;24.17;19.37;;;8.10;99.90;;;;;;5096668;28;20255;-73
2022/03/30 05:18:25;;;;;;;24.40;20.13;;;8.10;99.90;;;;;;5096523;28;20698;-72
2022/03/30 05:20:54;;;;;;;38.13;27.70;;;8.00;99.90;;;;;;5096498;28;20231;-73
2022/03/30 05:23:20;;;;;;;27.97;20.73;;;7.80;99.90;;;;;;5096309;28;20229;-73
2022/03/30 05:25:47;;;;;;;27.30;20.30;;;7.90;99.90;;;;;;5096488;28;20196;-73
2022/03/30 05:28:14;;;;;;;27.50;20.60;;;8.00;99.90;;;;;;5096522;28;20204;-74
2022/03/30 05:30:40;;;;;;;28.00;21.03;;;8.10;99.90;;;;;;5096254;28;20651;-74
2022/03/30 05:33:07;;;;;;;23.97;20.23;;;8.10;99.90;;;;;;5096395;28;20203;-73
2022/03/30 05:35:34;;;;;;;28.47;23.70;;;8.10;99.90;;;;;;5096091;28;20239;-73
2022/03/30 05:38:02;;;;;;;27.13;23.27;;;8.10;99.90;;;;;;5096082;28;20203;-73
2022/03/30 05:40:29;;;;;;;27.10;20.23;;;8.00;99.90;;;;;;5096331;28;20200;-73
2022/03/30 05:42:55;;;;;;;28.07;20.97;;;8.00;99.90;;;;;;5096152;28;20203;-73
2022/03/30 05:45:22;;;;;;;26.30;22.10;;;7.90;99.90;;;;;;5096339;28;20229;-73
2022/03/30 05:47:49;;;;;;;30.43;22.43;;;7.70;99.90;;;;;;5095814;28;20602;-73
2022/03/30 05:50:16;;;;;;;31.03;20.77;;;7.80;99.90;;;;;;5095637;28;20529;-73
2022/03/30 05:52:42;;;;;;;27.27;20.37;;;7.90;99.90;;;;;;5095991;28;20295;-74
2022/03/30 05:55:10;;;;;;;27.53;21.63;;;7.90;99.90;;;;;;5096141;28;20220;-73
2022/03/30 05:57:37;;;;;;;29.03;21.57;;;8.00;99.90;;;;;;5095982;28;20677;-73
2022/03/30 06:00:07;;;;;;;29.77;21.30;;;8.00;99.90;;;;;;5095731;28;20205;-73
2022/03/30 06:02:33;;;;;;;26.40;20.50;;;8.00;99.90;;;;;;5095847;28;20199;-73
2022/03/30 06:05:00;;;;;;;26.50;20.63;;;8.10;99.90;;;;;;5096023;28;20200;-73
2022/03/30 06:07:27;;;;;;;25.60;21.03;;;8.30;99.90;;;;;;5094865;28;20598;-73
2022/03/30 06:09:53;;;;;;;27.03;20.80;;;8.30;99.90;;;;;;5095723;28;20206;-73
2022/03/30 06:12:23;;;;;;;28.30;20.30;;;8.40;99.90;;;;;;5095568;28;20254;-74
2022/03/30 06:14:51;;;;;;;28.43;21.40;;;8.50;99.90;;;;;;5095155;28;20216;-73
2022/03/30 06:17:19;;;;;;;25.20;19.87;;;8.50;99.90;;;;;;5095387;28;20203;-74
2022/03/30 06:19:48;;;;;;;26.90;20.67;;;8.50;99.90;;;;;;5095340;28;20648;-73
2022/03/30 06:22:15;;;;;;;23.97;20.37;;;8.50;99.90;;;;;;5095335;28;20232;-74
2022/03/30 06:24:43;;;;;;;29.50;21.53;;;8.50;99.90;;;;;;5095420;28;20246;-73
2022/03/30 06:27:10;;;;;;;28.60;22.23;;;8.50;99.90;;;;;;5095209;28;20199;-73
2022/03/30 06:29:39;;;;;;;29.53;22.43;;;8.50;99.90;;;;;;5095155;28;20200;-73
2022/03/30 06:32:07;;;;;;;31.93;23.37;;;8.50;99.90;;;;;;5095350;28;20250;-72
2022/03/30 06:34:35;;;;;;;32.43;22.73;;;8.30;99.90;;;;;;5095174;28;20389;-73
2022/03/30 06:37:02;;;;;;;34.53;23.97;;;8.30;99.90;;;;;;5095345;28;20204;-72
2022/03/30 06:39:28;;;;;;;31.67;23.70;;;8.20;99.90;;;;;;5095057;28;20243;-73
2022/03/30 06:41:56;;;;;;;27.57;22.27;;;8.10;99.90;;;;;;5094971;28;20204;-72
2022/03/30 06:44:23;;;;;;;29.33;21.70;;;8.10;99.90;;;;;;5095308;28;20204;-72
2022/03/30 06:46:51;;;;;;;28.13;21.60;;;8.00;99.90;;;;;;5095232;28;20269;-73
2022/03/30 06:49:18;;;;;;;32.13;22.43;;;8.10;99.90;;;;;;5095033;28;20254;-72
2022/03/30 06:51:45;;;;;;;27.60;21.17;;;8.10;99.90;;;;;;5094761;28;20204;-72
2022/03/30 06:54:11;;;;;;;25.07;20.53;;;8.00;99.90;;;;;;5094755;28;20238;-72
2022/03/30 06:56:38;;;;;;;35.17;21.67;;;8.00;99.90;;;;;;5094434;28;20222;-73
2022/03/30 06:59:05;;;;;;;27.53;20.93;;;8.00;99.90;;;;;;5094729;28;20245;-72
2022/03/30 07:01:31;;;;;;;27.40;21.70;;;8.10;99.90;;;;;;5094714;28;20246;-73
2022/03/30 07:03:59;;;;;;;27.73;20.90;;;8.20;99.90;;;;;;5094448;28;20200;-72
2022/03/30 07:06:26;;;;;;;30.57;22.43;;;8.30;99.90;;;;;;5094398;28;20660;-72
2022/03/30 07:11:36;;;;;;;27.67;20.47;;;8.30;99.90;;;;;;5094469;28;20250;-73
2022/03/30 07:14:03;;;;;;;30.77;20.63;;;8.30;99.90;;;;;;5093526;28;20258;-72
2022/03/30 07:16:30;;;;;;;27.17;21.93;;;8.30;99.90;;;;;;5093207;28;20224;-72
2022/03/30 07:18:58;;;;;;;27.27;22.03;;;8.30;99.90;;;;;;5093039;28;20191;-72
2022/03/30 07:21:25;;;;;;;28.93;23.37;;;8.30;99.90;;;;;;5093364;28;20204;-73
2022/03/30 07:23:51;;;;;;;30.37;22.87;;;8.30;99.90;;;;;;5093553;28;20255;-72
2022/03/30 07:26:18;;;;;;;30.20;23.57;;;8.30;99.90;;;;;;5093717;28;20200;-72
2022/03/30 07:28:45;;;;;;;30.87;23.00;;;8.40;99.90;;;;;;5093696;28;20652;-72
2022/03/30 07:31:13;;;;;;;28.07;23.30;;;8.40;99.90;;;;;;5094035;28;20210;-72
2022/03/30 07:33:39;;;;;;;32.23;24.00;;;8.40;99.90;;;;;;5094061;28;20200;-72
2022/03/30 07:36:07;;;;;;;32.30;22.97;;;8.50;99.90;;;;;;5093882;28;20266;-72
2022/03/30 07:38:34;;;;;;;34.20;24.90;;;8.60;99.90;;;;;;5093792;28;20668;-72
2022/03/30 07:41:02;;;;;;;30.83;24.13;;;8.70;99.90;;;;;;5094204;28;20204;-72
2022/03/30 07:43:28;;;;;;;32.70;23.97;;;8.50;99.90;;;;;;5093614;28;20721;-72
2022/03/30 07:45:55;;;;;;;32.03;24.93;;;8.60;99.90;;;;;;5093819;28;20207;-72
2022/03/30 07:48:23;;;;;;;32.60;23.83;;;8.60;99.90;;;;;;5093599;28;20678;-71
2022/03/30 07:50:49;;;;;;;33.13;24.97;;;8.50;99.90;;;;;;5093439;28;20196;-71
2022/03/30 07:53:18;;;;;;;33.17;24.43;;;8.40;99.90;;;;;;5093808;28;20573;-71
2022/03/30 07:55:44;;;;;;;31.40;24.67;;;8.30;99.90;;;;;;5093691;28;20224;-71
2022/03/30 07:58:11;;;;;;;35.57;26.30;;;8.50;99.90;;;;;;5093443;28;20630;-71
2022/03/30 08:00:38;;;;;;;35.07;26.93;;;8.50;99.90;;;;;;5093389;28;20591;-72
2022/03/30 08:03:05;;;;;;;32.20;26.13;;;8.40;99.90;;;;;;5093419;28;20737;-71
2022/03/30 08:05:32;;;;;;;33.13;25.83;;;8.40;99.90;;;;;;5093295;28;20227;-72
2022/03/30 08:08:00;;;;;;;33.53;27.40;;;8.40;99.90;;;;;;5093587;28;20200;-72
2022/03/30 08:10:30;;;;;;;39.07;29.60;;;8.50;99.90;;;;;;5093640;28;20196;-72
2022/03/30 08:12:57;;;;;;;42.27;29.10;;;8.50;99.90;;;;;;5093430;28;20230;-72
2022/03/30 08:15:24;;;;;;;37.80;28.80;;;8.50;99.90;;;;;;5093203;28;20285;-72
2022/03/30 08:17:51;;;;;;;42.37;31.13;;;8.40;99.90;;;;;;5093182;28;20555;-72
2022/03/30 08:23:04;;;;;;;42.70;32.10;;;8.50;99.90;;;;;;5092993;28;20363;-72
2022/03/30 08:25:32;;;;;;;41.57;30.77;;;8.50;99.90;;;;;;5093196;28;20204;-72
2022/03/30 08:27:58;;;;;;;39.77;32.53;;;8.50;99.90;;;;;;5093138;28;20265;-72
2022/03/30 08:30:25;;;;;;;42.43;31.40;;;8.50;99.90;;;;;;5092462;28;20205;-72
2022/03/30 08:32:52;;;;;;;40.80;32.00;;;8.40;99.90;;;;;;5093147;28;20265;-72
2022/03/30 08:35:19;;;;;;;44.43;33.03;;;8.30;99.90;;;;;;5093154;28;20220;-72
2022/03/30 08:37:46;;;;;;;47.77;34.43;;;8.30;99.90;;;;;;5092868;28;20242;-71
2022/03/30 08:40:13;;;;;;;46.00;34.73;;;8.50;99.90;;;;;;5092954;28;20434;-71
2022/03/30 08:42:42;;;;;;;43.37;34.63;;;8.50;99.90;;;;;;5092874;28;20222;-71
2022/03/30 08:45:10;;;;;;;43.53;33.33;;;8.60;99.90;;;;;;5092790;28;20658;-71
2022/03/30 08:47:37;;;;;;;44.90;33.13;;;8.60;99.90;;;;;;5093068;28;20200;-71
2022/03/30 08:50:05;;;;;;;44.60;33.30;;;8.60;99.90;;;;;;5093004;28;20200;-72
2022/03/30 08:52:32;;;;;;;41.87;32.87;;;8.60;99.90;;;;;;5093087;28;20250;-71
2022/03/30 08:55:00;;;;;;;52.23;37.27;;;8.80;99.90;;;;;;5092916;28;20192;-71
2022/03/30 08:57:27;;;;;;;58.57;37.00;;;8.90;99.90;;;;;;5092582;28;20227;-72
2022/03/30 09:00:05;;;;;;;39.43;32.60;;;8.90;99.90;;;;;;5093294;28;20238;-72
2022/03/30 09:02:36;;;;;;;45.10;33.83;;;8.70;99.90;;;;;;5092975;28;20202;-71
2022/03/30 09:05:15;;;;;;;46.07;36.33;;;8.70;99.90;;;;;;5092736;28;20232;-72
2022/03/30 09:07:42;;;;;;;43.33;33.13;;;8.80;99.90;;;;;;5092646;28;20296;-71
2022/03/30 09:10:19;;;;;;;40.60;32.90;;;8.80;99.90;;;;;;5092839;28;20202;-72
2022/03/30 09:12:47;;;;;;;38.97;34.07;;;8.70;99.90;;;;;;5092726;28;20203;-71
2022/03/30 09:15:15;;;;;;;42.50;31.97;;;8.70;99.90;;;;;;5092704;28;20253;-71
2022/03/30 09:17:44;;;;;;;41.43;32.00;;;8.70;99.90;;;;;;5092917;28;20655;-72
2022/03/30 09:20:17;;;;;;;43.13;32.80;;;8.60;99.90;;;;;;5092579;28;20264;-72
2022/03/30 09:22:45;;;;;;;40.60;30.93;;;8.60;99.90;;;;;;5092624;28;20242;-72
2022/03/30 09:25:13;;;;;;;39.93;29.93;;;8.50;99.90;;;;;;5092700;28;20200;-73
2022/03/30 09:27:42;;;;;;;40.70;31.47;;;8.60;99.90;;;;;;5092648;28;20192;-72
2022/03/30 09:30:11;;;;;;;39.93;30.20;;;8.70;99.90;;;;;;5092841;28;20238;-72
2022/03/30 09:32:41;;;;;;;39.63;31.20;;;8.80;99.90;;;;;;5092461;28;20196;-72
2022/03/30 09:35:20;;;;;;;34.90;29.20;;;8.80;99.90;;;;;;5092314;28;20686;-72
2022/03/30 09:38:02;;;;;;;36.73;29.77;;;8.90;99.90;;;;;;5092577;28;20235;-71
2022/03/30 09:40:41;;;;;;;36.47;29.13;;;9.10;99.90;;;;;;5092470;28;20200;-72
2022/03/30 09:43:20;;;;;;;31.43;28.03;;;9.20;99.90;;;;;;5094473;28;20234;-71
2022/03/30 09:45:49;;;;;;;38.90;29.27;;;9.30;99.90;;;;;;5096002;28;20200;-71
2022/03/30 09:48:20;;;;;;;37.53;28.73;;;9.40;99.90;;;;;;5096117;28;20201;-72
2022/03/30 09:50:50;;;;;;;35.73;28.77;;;9.20;99.90;;;;;;5096010;28;20257;-70
2022/03/30 09:53:21;;;;;;;32.47;28.00;;;9.40;99.90;;;;;;5095803;28;20279;-70
2022/03/30 09:55:56;;;;;;;34.87;27.47;;;9.30;99.90;;;;;;5095736;28;20220;-70
2022/03/30 09:58:25;;;;;;;34.23;27.83;;;9.30;99.90;;;;;;5096079;28;20196;-72
2022/03/30 10:01:16;;;;;;;40.37;28.93;;;9.20;99.90;;;;;;5095905;28;20238;-71
2022/03/30 10:03:48;;;;;;;37.27;28.77;;;9.30;99.90;;;;;;5095582;28;20193;-71
2022/03/30 10:06:19;;;;;;;37.67;29.33;;;9.40;99.90;;;;;;5095340;28;20207;-71
2022/03/30 10:08:48;;;;;;;35.60;27.10;;;9.50;99.90;;;;;;5095706;28;20204;-71
2022/03/30 10:11:16;;;;;;;33.73;26.37;;;9.40;99.90;;;;;;5095685;28;20204;-70
2022/03/30 10:13:45;;;;;;;34.43;26.70;;;9.50;99.90;;;;;;5095806;28;20200;-71
2022/03/30 10:16:13;;;;;;;35.33;27.60;;;9.40;99.90;;;;;;5095408;28;20349;-72
2022/03/30 10:18:41;;;;;;;35.57;28.20;;;9.40;99.90;;;;;;5095373;28;20608;-71
2022/03/30 10:21:16;;;;;;;33.73;26.67;;;9.30;99.90;;;;;;5094903;28;20250;-71
2022/03/30 10:24:08;;;;;;;40.33;30.27;;;9.40;99.90;;;;;;5095276;28;20314;-72
2022/03/30 10:26:44;;;;;;;32.43;26.63;;;9.50;99.90;;;;;;5095076;28;20588;-71
2022/03/30 10:29:15;;;;;;;35.73;27.80;;;9.30;99.90;;;;;;5094977;28;20196;-71
2022/03/30 10:31:42;;;;;;;36.23;28.67;;;9.30;99.90;;;;;;5095101;28;20279;-71
2022/03/30 10:34:25;;;;;;;36.73;28.47;;;9.10;99.90;;;;;;5094933;28;20200;-72
2022/03/30 10:37:07;;;;;;;37.90;29.20;;;9.00;99.90;;;;;;5093195;28;20224;-71
2022/03/30 10:39:34;;;;;;;43.00;28.73;;;9.00;99.90;;;;;;5094915;28;20434;-71
2022/03/30 10:42:07;;;;;;;40.53;29.53;;;9.00;99.90;;;;;;5095076;28;20226;-71
2022/03/30 10:44:35;;;;;;;39.10;30.33;;;9.10;99.90;;;;;;5094957;28;20280;-71
2022/03/30 10:47:10;;;;;;;35.97;29.17;;;9.10;99.90;;;;;;5094802;28;20258;-71
2022/03/30 10:49:50;;;;;;;42.30;30.93;;;9.20;99.90;;;;;;5094612;28;20675;-71
2022/03/30 10:52:37;;;;;;;44.17;31.23;;;9.20;99.90;;;;;;5094560;28;20200;-71
2022/03/30 10:55:30;;;;;;;46.90;30.33;;;9.40;99.90;;;;;;5094445;28;20196;-71
2022/03/30 10:58:01;;;;;;;38.67;30.60;;;9.60;99.90;;;;;;5094488;28;20263;-71
2022/03/30 11:00:29;;;;;;;37.33;29.30;;;9.60;99.90;;;;;;5094491;28;20209;-71
2022/03/30 11:03:16;;;;;;;33.93;27.90;;;9.70;99.90;;;;;;5094461;28;20275;-71
2022/03/30 11:05:58;;;;;;;32.50;25.47;;;9.80;99.90;;;;;;5094323;28;20200;-71
2022/03/30 11:08:57;;;;;;;34.10;27.23;;;9.60;99.90;;;;;;5094298;28;20246;-71
2022/03/30 11:11:26;;;;;;;34.20;24.83;;;9.80;99.90;;;;;;5094477;28;20257;-71
2022/03/30 11:14:24;;;;;;;34.13;25.90;;;9.80;99.90;;;;;;5094513;28;20199;-71
2022/03/30 11:16:52;;;;;;;34.97;26.60;;;9.80;99.90;;;;;;5094034;28;20224;-71
2022/03/30 11:19:19;;;;;;;33.47;25.80;;;9.80;99.90;;;;;;5093950;28;20591;-71
2022/03/30 11:22:11;;;;;;;32.07;23.77;;;9.80;99.90;;;;;;5094310;28;20204;-71
2022/03/30 11:24:41;;;;;;;31.97;22.77;;;9.90;99.90;;;;;;5091523;28;20200;-72
2022/03/30 11:27:19;;;;;;;35.30;23.37;;;9.70;99.90;;;;;;5094333;28;20223;-72
2022/03/30 11:30:03;;;;;;;36.37;25.47;;;9.60;99.90;;;;;;5093916;28;20196;-72
2022/03/30 11:32:37;;;;;;;33.27;26.07;;;9.60;99.90;;;;;;5092064;28;20201;-72
2022/03/30 11:35:06;;;;;;;35.30;26.33;;;9.50;99.90;;;;;;5094186;28;20216;-72
2022/03/30 11:37:36;;;;;;;34.60;26.37;;;9.40;99.90;;;;;;5093764;28;20228;-72
2022/03/30 11:40:07;;;;;;;34.07;27.30;;;9.30;99.90;;;;;;5093749;28;20196;-72
2022/03/30 11:42:34;;;;;;;34.73;25.47;;;9.20;99.90;;;;;;5093914;28;20245;-72
2022/03/30 11:45:19;;;;;;;35.40;23.93;;;9.30;99.90;;;;;;5093618;28;20245;-72
2022/03/30 11:47:47;;;;;;;32.33;22.73;;;9.20;99.90;;;;;;5093824;28;20647;-71
2022/03/30 11:50:15;;;;;;;38.67;24.87;;;9.30;99.90;;;;;;5093562;28;20196;-72
2022/03/30 11:52:44;;;;;;;30.90;23.73;;;9.40;99.90;;;;;;5093425;28;20655;-72
2022/03/30 11:55:12;;;;;;;31.73;25.13;;;9.50;99.90;;;;;;5093519;28;20227;-71
2022/03/30 11:57:41;;;;;;;31.33;23.20;;;9.50;99.90;;;;;;5093510;28;20296;-71
2022/03/30 12:00:10;;;;;;;31.60;21.97;;;9.50;99.90;;;;;;5093511;28;20241;-72
2022/03/30 12:02:38;;;;;;;34.93;22.33;;;9.40;99.90;;;;;;5093454;28;20200;-72
2022/03/30 12:05:07;;;;;;;31.77;22.00;;;9.40;99.90;;;;;;5092727;28;20205;-72
2022/03/30 12:07:35;;;;;;;38.20;23.20;;;9.40;99.90;;;;;;5093554;28;20246;-72
2022/03/30 12:10:05;;;;;;;32.60;21.87;;;9.50;99.90;;;;;;5093652;28;20210;-72
2022/03/30 12:12:36;;;;;;;33.07;22.43;;;9.50;99.90;;;;;;5093319;28;20196;-70
2022/03/30 12:15:05;;;;;;;34.13;22.63;;;9.40;99.90;;;;;;5093841;28;20196;-70
2022/03/30 12:17:33;;;;;;;29.47;20.33;;;9.40;99.90;;;;;;5092905;28;20621;-70
2022/03/30 12:20:01;;;;;;;27.43;20.53;;;9.40;99.90;;;;;;5093420;28;20283;-70
2022/03/30 12:22:29;;;;;;;33.33;19.97;;;9.30;99.90;;;;;;5092882;28;20293;-71
2022/03/30 12:24:56;;;;;;;27.27;19.77;;;9.30;99.90;;;;;;5093345;28;20191;-71
2022/03/30 12:27:23;;;;;;;31.53;20.97;;;9.40;99.90;;;;;;5093103;28;20232;-71
2022/03/30 12:29:55;;;;;;;29.77;19.93;;;9.40;99.90;;;;;;5093033;28;20603;-71
2022/03/30 12:32:23;;;;;;;27.90;19.87;;;9.50;99.90;;;;;;5093246;28;20303;-71
2022/03/30 12:34:50;;;;;;;39.70;20.30;;;9.50;99.90;;;;;;5093242;28;20204;-71
2022/03/30 12:37:22;;;;;;;27.87;19.23;;;9.50;99.90;;;;;;5093034;28;20224;-71
2022/03/30 12:39:48;;;;;;;35.80;20.27;;;9.50;99.90;;;;;;5093135;28;20200;-71
2022/03/30 12:42:22;;;;;;;27.83;19.77;;;9.60;99.90;;;;;;5093002;28;20200;-71
2022/03/30 12:44:52;;;;;;;27.37;19.27;;;9.60;99.90;;;;;;5093375;28;20245;-71
2022/03/30 12:47:28;;;;;;;25.73;18.30;;;9.50;99.90;;;;;;5093138;28;20292;-71
2022/03/30 12:49:56;;;;;;;29.50;18.67;;;9.40;99.90;;;;;;5093067;28;20200;-71
2022/03/30 12:52:32;;;;;;;32.10;19.07;;;9.50;99.90;;;;;;5092941;28;20192;-71